Cleveland, Ohio
Traffic Map
Current Weather Conditions
Cleveland, Ohio
Clear
Clear
74°
Feels Like: 74°
Wind Chill: 74° Ceiling: Unl
Heat Index: 74° Visibility: 10mi
Dew Point: 46° Wind: 7mph
Humidity: 37% Direction: 160° (SSE)
Pressure: 30.13in Gusts: 0mph
Raw Report DataKBKL 250253Z 16006KT 10SM CLR 23/08 A3013 RMK AO2 SLP200 T02330078 55002
Traffic Incident Summary
Active as of:
Severity:
Category:
InformationThere was an issue retrieving the traffic information for this location. Please try a different location or try again shortly.
Advertisements
Track Severe Weather on mobile